sensor_id;sensor_type;location;lat;lon;timestamp;P1;durP1;ratioP1;P2;durP2;ratioP2
18210;SDS011;9231;48.852;9.882;2023-07-29T00:01:51;4.87;;;2.10;;
18210;SDS011;9231;48.852;9.882;2023-07-29T00:04:20;2.80;;;2.00;;
18210;SDS011;9231;48.852;9.882;2023-07-29T00:06:46;2.70;;;1.90;;
18210;SDS011;9231;48.852;9.882;2023-07-29T00:09:13;5.87;;;2.10;;
18210;SDS011;9231;48.852;9.882;2023-07-29T00:11:39;3.63;;;1.93;;
18210;SDS011;9231;48.852;9.882;2023-07-29T00:14:06;2.67;;;2.00;;
18210;SDS011;9231;48.852;9.882;2023-07-29T00:16:32;4.17;;;1.87;;
18210;SDS011;9231;48.852;9.882;2023-07-29T00:18:59;4.60;;;1.80;;
18210;SDS011;9231;48.852;9.882;2023-07-29T00:21:26;2.30;;;2.00;;
18210;SDS011;9231;48.852;9.882;2023-07-29T00:23:53;1.73;;;1.43;;
18210;SDS011;9231;48.852;9.882;2023-07-29T00:26:22;3.93;;;2.57;;
18210;SDS011;9231;48.852;9.882;2023-07-29T00:28:51;3.13;;;2.50;;
18210;SDS011;9231;48.852;9.882;2023-07-29T00:31:17;5.57;;;2.67;;
18210;SDS011;9231;48.852;9.882;2023-07-29T00:33:44;4.23;;;2.67;;
18210;SDS011;9231;48.852;9.882;2023-07-29T00:36:10;6.83;;;2.23;;
18210;SDS011;9231;48.852;9.882;2023-07-29T00:38:38;4.37;;;2.27;;
18210;SDS011;9231;48.852;9.882;2023-07-29T00:41:04;4.60;;;1.90;;
18210;SDS011;9231;48.852;9.882;2023-07-29T00:43:31;3.10;;;2.30;;
18210;SDS011;9231;48.852;9.882;2023-07-29T00:45:57;2.77;;;1.97;;
18210;SDS011;9231;48.852;9.882;2023-07-29T00:48:24;2.70;;;2.03;;
18210;SDS011;9231;48.852;9.882;2023-07-29T00:50:51;3.97;;;2.70;;
18210;SDS011;9231;48.852;9.882;2023-07-29T00:53:17;5.23;;;2.27;;
18210;SDS011;9231;48.852;9.882;2023-07-29T00:55:45;2.97;;;2.23;;
18210;SDS011;9231;48.852;9.882;2023-07-29T00:58:12;5.10;;;2.17;;
18210;SDS011;9231;48.852;9.882;2023-07-29T01:00:38;4.23;;;2.60;;
18210;SDS011;9231;48.852;9.882;2023-07-29T01:03:05;2.40;;;2.13;;
18210;SDS011;9231;48.852;9.882;2023-07-29T01:05:33;2.23;;;1.80;;
18210;SDS011;9231;48.852;9.882;2023-07-29T01:08:09;4.10;;;2.60;;
18210;SDS011;9231;48.852;9.882;2023-07-29T01:10:40;2.23;;;2.00;;
18210;SDS011;9231;48.852;9.882;2023-07-29T01:13:13;3.30;;;2.17;;
18210;SDS011;9231;48.852;9.882;2023-07-29T01:15:43;6.30;;;2.43;;
18210;SDS011;9231;48.852;9.882;2023-07-29T01:18:11;5.30;;;2.77;;
18210;SDS011;9231;48.852;9.882;2023-07-29T01:20:41;2.57;;;2.37;;
18210;SDS011;9231;48.852;9.882;2023-07-29T01:23:09;3.20;;;1.90;;
18210;SDS011;9231;48.852;9.882;2023-07-29T01:25:37;3.83;;;2.47;;
18210;SDS011;9231;48.852;9.882;2023-07-29T01:28:03;3.70;;;2.50;;
18210;SDS011;9231;48.852;9.882;2023-07-29T01:30:30;3.73;;;2.27;;
18210;SDS011;9231;48.852;9.882;2023-07-29T01:32:58;5.43;;;2.23;;
18210;SDS011;9231;48.852;9.882;2023-07-29T01:35:28;5.27;;;2.67;;
18210;SDS011;9231;48.852;9.882;2023-07-29T01:37:55;5.67;;;3.13;;
18210;SDS011;9231;48.852;9.882;2023-07-29T01:40:22;4.37;;;3.17;;
18210;SDS011;9231;48.852;9.882;2023-07-29T01:42:50;3.10;;;2.50;;
18210;SDS011;9231;48.852;9.882;2023-07-29T01:45:17;3.30;;;2.53;;
18210;SDS011;9231;48.852;9.882;2023-07-29T01:47:43;3.47;;;2.73;;
18210;SDS011;9231;48.852;9.882;2023-07-29T01:50:10;4.50;;;2.80;;
18210;SDS011;9231;48.852;9.882;2023-07-29T01:52:37;2.23;;;2.03;;
18210;SDS011;9231;48.852;9.882;2023-07-29T01:55:04;3.93;;;2.77;;
18210;SDS011;9231;48.852;9.882;2023-07-29T01:57:30;4.07;;;2.33;;
18210;SDS011;9231;48.852;9.882;2023-07-29T01:59:58;3.27;;;2.27;;
18210;SDS011;9231;48.852;9.882;2023-07-29T02:02:24;3.57;;;2.23;;
18210;SDS011;9231;48.852;9.882;2023-07-29T02:04:51;3.73;;;2.13;;
18210;SDS011;9231;48.852;9.882;2023-07-29T02:07:17;3.33;;;1.97;;
18210;SDS011;9231;48.852;9.882;2023-07-29T02:09:44;3.90;;;2.03;;
18210;SDS011;9231;48.852;9.882;2023-07-29T02:12:10;3.63;;;3.10;;
18210;SDS011;9231;48.852;9.882;2023-07-29T02:14:37;4.43;;;3.10;;
18210;SDS011;9231;48.852;9.882;2023-07-29T02:17:05;3.83;;;3.07;;
18210;SDS011;9231;48.852;9.882;2023-07-29T02:19:31;3.60;;;3.03;;
18210;SDS011;9231;48.852;9.882;2023-07-29T02:21:58;4.47;;;3.47;;
18210;SDS011;9231;48.852;9.882;2023-07-29T02:24:24;3.73;;;3.33;;
18210;SDS011;9231;48.852;9.882;2023-07-29T02:26:51;4.00;;;3.00;;
18210;SDS011;9231;48.852;9.882;2023-07-29T02:29:17;5.77;;;3.10;;
18210;SDS011;9231;48.852;9.882;2023-07-29T02:31:43;6.40;;;3.50;;
18210;SDS011;9231;48.852;9.882;2023-07-29T02:34:11;4.27;;;3.23;;
18210;SDS011;9231;48.852;9.882;2023-07-29T02:36:38;6.57;;;3.10;;
18210;SDS011;9231;48.852;9.882;2023-07-29T02:39:04;3.90;;;2.80;;
18210;SDS011;9231;48.852;9.882;2023-07-29T02:41:31;9.37;;;2.63;;
18210;SDS011;9231;48.852;9.882;2023-07-29T02:43:57;3.47;;;2.10;;
18210;SDS011;9231;48.852;9.882;2023-07-29T02:46:24;4.00;;;2.10;;
18210;SDS011;9231;48.852;9.882;2023-07-29T02:48:52;2.67;;;2.47;;
18210;SDS011;9231;48.852;9.882;2023-07-29T02:51:20;4.67;;;2.77;;
18210;SDS011;9231;48.852;9.882;2023-07-29T02:53:46;4.23;;;2.93;;
18210;SDS011;9231;48.852;9.882;2023-07-29T02:56:13;4.33;;;3.33;;
18210;SDS011;9231;48.852;9.882;2023-07-29T02:58:39;5.40;;;3.60;;
18210;SDS011;9231;48.852;9.882;2023-07-29T03:01:06;4.90;;;3.30;;
18210;SDS011;9231;48.852;9.882;2023-07-29T03:03:32;7.63;;;3.40;;
18210;SDS011;9231;48.852;9.882;2023-07-29T03:05:59;3.87;;;3.30;;
18210;SDS011;9231;48.852;9.882;2023-07-29T03:08:28;3.37;;;3.07;;
18210;SDS011;9231;48.852;9.882;2023-07-29T03:10:55;3.63;;;2.53;;
18210;SDS011;9231;48.852;9.882;2023-07-29T03:13:21;5.10;;;3.20;;
18210;SDS011;9231;48.852;9.882;2023-07-29T03:15:48;2.87;;;2.57;;
18210;SDS011;9231;48.852;9.882;2023-07-29T03:18:15;4.13;;;3.30;;
18210;SDS011;9231;48.852;9.882;2023-07-29T03:20:41;2.73;;;2.53;;
18210;SDS011;9231;48.852;9.882;2023-07-29T03:23:08;5.40;;;2.57;;
18210;SDS011;9231;48.852;9.882;2023-07-29T03:25:36;2.57;;;2.33;;
18210;SDS011;9231;48.852;9.882;2023-07-29T03:28:02;2.73;;;2.10;;
18210;SDS011;9231;48.852;9.882;2023-07-29T03:30:29;2.50;;;2.30;;
18210;SDS011;9231;48.852;9.882;2023-07-29T03:32:55;3.70;;;1.60;;
18210;SDS011;9231;48.852;9.882;2023-07-29T03:35:22;2.07;;;1.87;;
18210;SDS011;9231;48.852;9.882;2023-07-29T03:37:48;1.70;;;1.60;;
18210;SDS011;9231;48.852;9.882;2023-07-29T03:40:15;2.73;;;1.23;;
18210;SDS011;9231;48.852;9.882;2023-07-29T03:42:42;1.30;;;1.13;;
18210;SDS011;9231;48.852;9.882;2023-07-29T03:45:09;2.20;;;1.10;;
18210;SDS011;9231;48.852;9.882;2023-07-29T03:47:36;1.37;;;1.27;;
18210;SDS011;9231;48.852;9.882;2023-07-29T03:50:04;1.57;;;1.30;;
18210;SDS011;9231;48.852;9.882;2023-07-29T03:52:30;1.30;;;1.20;;
18210;SDS011;9231;48.852;9.882;2023-07-29T03:54:57;2.37;;;1.40;;
18210;SDS011;9231;48.852;9.882;2023-07-29T03:57:24;4.97;;;3.23;;
18210;SDS011;9231;48.852;9.882;2023-07-29T03:59:51;3.77;;;2.67;;
18210;SDS011;9231;48.852;9.882;2023-07-29T04:02:18;4.77;;;2.80;;
18210;SDS011;9231;48.852;9.882;2023-07-29T04:04:44;6.47;;;2.90;;
18210;SDS011;9231;48.852;9.882;2023-07-29T04:07:12;2.80;;;2.27;;
18210;SDS011;9231;48.852;9.882;2023-07-29T04:09:39;5.13;;;2.40;;
18210;SDS011;9231;48.852;9.882;2023-07-29T04:12:06;4.77;;;1.93;;
18210;SDS011;9231;48.852;9.882;2023-07-29T04:14:32;2.37;;;2.20;;
18210;SDS011;9231;48.852;9.882;2023-07-29T04:17:00;3.10;;;2.80;;
18210;SDS011;9231;48.852;9.882;2023-07-29T04:19:26;2.67;;;2.43;;
18210;SDS011;9231;48.852;9.882;2023-07-29T04:21:53;4.67;;;2.50;;
18210;SDS011;9231;48.852;9.882;2023-07-29T04:24:19;4.10;;;2.20;;
18210;SDS011;9231;48.852;9.882;2023-07-29T04:26:48;4.57;;;2.70;;
18210;SDS011;9231;48.852;9.882;2023-07-29T04:29:14;4.87;;;2.40;;
18210;SDS011;9231;48.852;9.882;2023-07-29T04:31:41;2.90;;;2.60;;
18210;SDS011;9231;48.852;9.882;2023-07-29T04:34:09;2.53;;;2.33;;
18210;SDS011;9231;48.852;9.882;2023-07-29T04:36:35;5.90;;;2.60;;
18210;SDS011;9231;48.852;9.882;2023-07-29T04:39:02;3.43;;;2.23;;
18210;SDS011;9231;48.852;9.882;2023-07-29T04:41:28;2.70;;;2.40;;
18210;SDS011;9231;48.852;9.882;2023-07-29T04:43:55;4.93;;;2.23;;
18210;SDS011;9231;48.852;9.882;2023-07-29T04:46:21;2.10;;;1.90;;
18210;SDS011;9231;48.852;9.882;2023-07-29T04:48:48;4.00;;;2.10;;
18210;SDS011;9231;48.852;9.882;2023-07-29T04:51:16;2.27;;;1.77;;
18210;SDS011;9231;48.852;9.882;2023-07-29T04:53:42;3.57;;;1.70;;
18210;SDS011;9231;48.852;9.882;2023-07-29T04:56:08;3.63;;;2.03;;
18210;SDS011;9231;48.852;9.882;2023-07-29T04:58:35;2.53;;;1.53;;
18210;SDS011;9231;48.852;9.882;2023-07-29T05:01:01;2.77;;;1.50;;
18210;SDS011;9231;48.852;9.882;2023-07-29T05:03:28;2.03;;;1.70;;
18210;SDS011;9231;48.852;9.882;2023-07-29T05:05:54;4.67;;;1.50;;
18210;SDS011;9231;48.852;9.882;2023-07-29T05:08:23;1.67;;;1.50;;
18210;SDS011;9231;48.852;9.882;2023-07-29T05:10:50;1.50;;;1.40;;
18210;SDS011;9231;48.852;9.882;2023-07-29T05:13:17;2.10;;;1.23;;
18210;SDS011;9231;48.852;9.882;2023-07-29T05:15:44;4.13;;;1.60;;
18210;SDS011;9231;48.852;9.882;2023-07-29T05:18:10;4.50;;;1.70;;
18210;SDS011;9231;48.852;9.882;2023-07-29T05:20:37;1.70;;;1.47;;
18210;SDS011;9231;48.852;9.882;2023-07-29T05:23:04;2.83;;;1.73;;
18210;SDS011;9231;48.852;9.882;2023-07-29T05:25:33;1.67;;;1.57;;
18210;SDS011;9231;48.852;9.882;2023-07-29T05:28:00;2.60;;;1.43;;
18210;SDS011;9231;48.852;9.882;2023-07-29T05:30:26;1.87;;;1.53;;
18210;SDS011;9231;48.852;9.882;2023-07-29T05:32:55;3.10;;;1.60;;
18210;SDS011;9231;48.852;9.882;2023-07-29T05:35:22;2.90;;;1.30;;
18210;SDS011;9231;48.852;9.882;2023-07-29T05:37:48;2.37;;;1.30;;
18210;SDS011;9231;48.852;9.882;2023-07-29T05:40:15;1.70;;;1.20;;
18210;SDS011;9231;48.852;9.882;2023-07-29T05:42:43;3.13;;;1.40;;
18210;SDS011;9231;48.852;9.882;2023-07-29T05:45:10;2.20;;;1.50;;
18210;SDS011;9231;48.852;9.882;2023-07-29T05:47:36;1.83;;;1.27;;
18210;SDS011;9231;48.852;9.882;2023-07-29T05:50:03;2.93;;;1.30;;
18210;SDS011;9231;48.852;9.882;2023-07-29T05:52:30;2.73;;;1.40;;
18210;SDS011;9231;48.852;9.882;2023-07-29T05:54:56;4.50;;;1.50;;
18210;SDS011;9231;48.852;9.882;2023-07-29T05:57:23;3.00;;;1.30;;
18210;SDS011;9231;48.852;9.882;2023-07-29T05:59:51;3.43;;;1.43;;
18210;SDS011;9231;48.852;9.882;2023-07-29T06:02:17;1.93;;;1.33;;
18210;SDS011;9231;48.852;9.882;2023-07-29T06:04:43;2.60;;;1.30;;
18210;SDS011;9231;48.852;9.882;2023-07-29T06:07:10;2.13;;;1.40;;
18210;SDS011;9231;48.852;9.882;2023-07-29T06:09:36;4.93;;;1.70;;
18210;SDS011;9231;48.852;9.882;2023-07-29T06:12:03;2.40;;;1.63;;
18210;SDS011;9231;48.852;9.882;2023-07-29T06:14:30;2.60;;;1.70;;
18210;SDS011;9231;48.852;9.882;2023-07-29T06:16:57;2.47;;;1.83;;
18210;SDS011;9231;48.852;9.882;2023-07-29T06:19:24;2.17;;;1.60;;
18210;SDS011;9231;48.852;9.882;2023-07-29T06:21:50;2.93;;;1.67;;
18210;SDS011;9231;48.852;9.882;2023-07-29T06:24:17;2.20;;;1.53;;
18210;SDS011;9231;48.852;9.882;2023-07-29T06:26:43;4.87;;;1.90;;
18210;SDS011;9231;48.852;9.882;2023-07-29T06:29:10;3.87;;;1.70;;
18210;SDS011;9231;48.852;9.882;2023-07-29T06:31:36;3.50;;;1.77;;
18210;SDS011;9231;48.852;9.882;2023-07-29T06:34:04;4.73;;;1.93;;
18210;SDS011;9231;48.852;9.882;2023-07-29T06:36:31;2.77;;;2.00;;
18210;SDS011;9231;48.852;9.882;2023-07-29T06:38:57;4.23;;;1.90;;
18210;SDS011;9231;48.852;9.882;2023-07-29T06:41:23;3.07;;;2.00;;
18210;SDS011;9231;48.852;9.882;2023-07-29T06:43:50;4.33;;;2.00;;
18210;SDS011;9231;48.852;9.882;2023-07-29T06:46:16;3.13;;;1.90;;
18210;SDS011;9231;48.852;9.882;2023-07-29T06:48:43;2.00;;;1.67;;
18210;SDS011;9231;48.852;9.882;2023-07-29T06:51:11;1.83;;;1.73;;
18210;SDS011;9231;48.852;9.882;2023-07-29T06:53:37;2.70;;;2.20;;
18210;SDS011;9231;48.852;9.882;2023-07-29T06:56:03;3.10;;;2.17;;
18210;SDS011;9231;48.852;9.882;2023-07-29T06:58:30;4.63;;;2.37;;
18210;SDS011;9231;48.852;9.882;2023-07-29T07:00:56;2.80;;;2.33;;
18210;SDS011;9231;48.852;9.882;2023-07-29T07:03:23;2.67;;;1.67;;
18210;SDS011;9231;48.852;9.882;2023-07-29T07:05:49;4.53;;;2.00;;
18210;SDS011;9231;48.852;9.882;2023-07-29T07:08:17;3.77;;;1.87;;
18210;SDS011;9231;48.852;9.882;2023-07-29T07:10:44;5.53;;;1.50;;
18210;SDS011;9231;48.852;9.882;2023-07-29T07:13:10;3.20;;;1.80;;
18210;SDS011;9231;48.852;9.882;2023-07-29T07:15:37;2.97;;;2.40;;
18210;SDS011;9231;48.852;9.882;2023-07-29T07:18:03;3.13;;;1.63;;
18210;SDS011;9231;48.852;9.882;2023-07-29T07:20:30;2.30;;;1.60;;
18210;SDS011;9231;48.852;9.882;2023-07-29T07:22:56;2.37;;;1.63;;
18210;SDS011;9231;48.852;9.882;2023-07-29T07:25:24;2.80;;;1.93;;
18210;SDS011;9231;48.852;9.882;2023-07-29T07:27:50;2.90;;;1.60;;
18210;SDS011;9231;48.852;9.882;2023-07-29T07:30:17;1.67;;;1.40;;
18210;SDS011;9231;48.852;9.882;2023-07-29T07:32:44;2.20;;;1.60;;
18210;SDS011;9231;48.852;9.882;2023-07-29T07:35:10;2.03;;;1.40;;
18210;SDS011;9231;48.852;9.882;2023-07-29T07:37:37;5.20;;;1.80;;
18210;SDS011;9231;48.852;9.882;2023-07-29T07:40:04;2.57;;;1.40;;
18210;SDS011;9231;48.852;9.882;2023-07-29T07:42:32;1.40;;;1.17;;
18210;SDS011;9231;48.852;9.882;2023-07-29T07:44:59;3.83;;;1.67;;
18210;SDS011;9231;48.852;9.882;2023-07-29T07:47:25;3.10;;;1.87;;
18210;SDS011;9231;48.852;9.882;2023-07-29T07:49:52;3.30;;;1.57;;
18210;SDS011;9231;48.852;9.882;2023-07-29T07:52:18;6.27;;;1.90;;
18210;SDS011;9231;48.852;9.882;2023-07-29T07:54:45;4.97;;;2.03;;
18210;SDS011;9231;48.852;9.882;2023-07-29T07:57:11;5.13;;;1.73;;
18210;SDS011;9231;48.852;9.882;2023-07-29T07:59:39;4.07;;;1.90;;
18210;SDS011;9231;48.852;9.882;2023-07-29T08:02:05;3.77;;;1.90;;
18210;SDS011;9231;48.852;9.882;2023-07-29T08:04:32;2.80;;;1.50;;
18210;SDS011;9231;48.852;9.882;2023-07-29T08:06:58;2.53;;;1.67;;
18210;SDS011;9231;48.852;9.882;2023-07-29T08:09:25;3.47;;;1.80;;
18210;SDS011;9231;48.852;9.882;2023-07-29T08:11:51;1.67;;;1.50;;
18210;SDS011;9231;48.852;9.882;2023-07-29T08:14:18;4.33;;;1.83;;
18210;SDS011;9231;48.852;9.882;2023-07-29T08:16:46;1.77;;;1.10;;
18210;SDS011;9231;48.852;9.882;2023-07-29T08:19:12;2.17;;;1.40;;
18210;SDS011;9231;48.852;9.882;2023-07-29T08:21:38;3.13;;;1.80;;
18210;SDS011;9231;48.852;9.882;2023-07-29T08:24:05;3.20;;;1.70;;
18210;SDS011;9231;48.852;9.882;2023-07-29T08:26:32;2.43;;;1.60;;
18210;SDS011;9231;48.852;9.882;2023-07-29T08:28:58;3.17;;;1.20;;
18210;SDS011;9231;48.852;9.882;2023-07-29T08:31:25;1.53;;;1.10;;
18210;SDS011;9231;48.852;9.882;2023-07-29T08:33:53;1.73;;;1.10;;
18210;SDS011;9231;48.852;9.882;2023-07-29T08:36:19;1.23;;;1.00;;
18210;SDS011;9231;48.852;9.882;2023-07-29T08:38:46;1.30;;;0.90;;
18210;SDS011;9231;48.852;9.882;2023-07-29T08:41:13;2.63;;;0.80;;
18210;SDS011;9231;48.852;9.882;2023-07-29T08:43:42;1.93;;;1.20;;
18210;SDS011;9231;48.852;9.882;2023-07-29T08:46:09;1.52;;;0.73;;
18210;SDS011;9231;48.852;9.882;2023-07-29T08:48:39;2.00;;;1.07;;
18210;SDS011;9231;48.852;9.882;2023-07-29T08:51:07;2.85;;;1.27;;
18210;SDS011;9231;48.852;9.882;2023-07-29T08:53:34;1.73;;;1.23;;
18210;SDS011;9231;48.852;9.882;2023-07-29T08:56:01;2.27;;;1.10;;
18210;SDS011;9231;48.852;9.882;2023-07-29T08:58:27;1.35;;;1.20;;
18210;SDS011;9231;48.852;9.882;2023-07-29T09:00:54;2.43;;;1.00;;
18210;SDS011;9231;48.852;9.882;2023-07-29T09:03:21;2.83;;;1.25;;
18210;SDS011;9231;48.852;9.882;2023-07-29T09:05:47;2.03;;;1.40;;
18210;SDS011;9231;48.852;9.882;2023-07-29T09:08:15;1.30;;;1.20;;
18210;SDS011;9231;48.852;9.882;2023-07-29T09:10:42;1.85;;;1.40;;
18210;SDS011;9231;48.852;9.882;2023-07-29T09:13:09;2.03;;;1.10;;
18210;SDS011;9231;48.852;9.882;2023-07-29T09:15:35;2.60;;;1.10;;
18210;SDS011;9231;48.852;9.882;2023-07-29T09:18:08;2.70;;;1.27;;
18210;SDS011;9231;48.852;9.882;2023-07-29T09:20:35;2.08;;;1.23;;
18210;SDS011;9231;48.852;9.882;2023-07-29T09:23:02;3.72;;;1.33;;
18210;SDS011;9231;48.852;9.882;2023-07-29T09:25:29;2.47;;;1.15;;
18210;SDS011;9231;48.852;9.882;2023-07-29T09:27:58;2.08;;;1.20;;
18210;SDS011;9231;48.852;9.882;2023-07-29T09:30:24;2.75;;;1.02;;
18210;SDS011;9231;48.852;9.882;2023-07-29T09:32:52;3.15;;;1.27;;
18210;SDS011;9231;48.852;9.882;2023-07-29T09:35:20;2.25;;;1.83;;
18210;SDS011;9231;48.852;9.882;2023-07-29T09:37:47;1.75;;;1.33;;
18210;SDS011;9231;48.852;9.882;2023-07-29T09:40:14;2.17;;;1.30;;
18210;SDS011;9231;48.852;9.882;2023-07-29T09:42:46;1.80;;;1.40;;
18210;SDS011;9231;48.852;9.882;2023-07-29T09:45:14;1.58;;;1.15;;
18210;SDS011;9231;48.852;9.882;2023-07-29T09:47:45;1.73;;;1.05;;
18210;SDS011;9231;48.852;9.882;2023-07-29T09:50:12;2.60;;;1.48;;
18210;SDS011;9231;48.852;9.882;2023-07-29T09:52:38;2.05;;;1.45;;
18210;SDS011;9231;48.852;9.882;2023-07-29T09:55:05;1.63;;;1.25;;
18210;SDS011;9231;48.852;9.882;2023-07-29T09:57:32;1.58;;;1.23;;
18210;SDS011;9231;48.852;9.882;2023-07-29T10:00:00;2.22;;;1.40;;
18210;SDS011;9231;48.852;9.882;2023-07-29T10:02:29;2.95;;;1.40;;
18210;SDS011;9231;48.852;9.882;2023-07-29T10:04:56;1.67;;;1.20;;
18210;SDS011;9231;48.852;9.882;2023-07-29T10:07:23;1.30;;;1.15;;
18210;SDS011;9231;48.852;9.882;2023-07-29T10:09:50;2.22;;;1.23;;
18210;SDS011;9231;48.852;9.882;2023-07-29T10:12:17;3.25;;;1.20;;
18210;SDS011;9231;48.852;9.882;2023-07-29T10:14:44;1.23;;;1.00;;
18210;SDS011;9231;48.852;9.882;2023-07-29T10:17:14;3.30;;;1.48;;
18210;SDS011;9231;48.852;9.882;2023-07-29T10:19:41;1.40;;;1.20;;
18210;SDS011;9231;48.852;9.882;2023-07-29T10:22:08;1.67;;;1.50;;
18210;SDS011;9231;48.852;9.882;2023-07-29T10:24:36;1.33;;;1.20;;
18210;SDS011;9231;48.852;9.882;2023-07-29T10:27:06;2.05;;;1.45;;
18210;SDS011;9231;48.852;9.882;2023-07-29T10:29:34;3.83;;;1.45;;
18210;SDS011;9231;48.852;9.882;2023-07-29T10:32:04;2.45;;;1.20;;
18210;SDS011;9231;48.852;9.882;2023-07-29T10:34:32;1.75;;;1.50;;
18210;SDS011;9231;48.852;9.882;2023-07-29T10:36:59;1.27;;;1.17;;
18210;SDS011;9231;48.852;9.882;2023-07-29T10:39:26;2.85;;;1.05;;
18210;SDS011;9231;48.852;9.882;2023-07-29T10:41:56;1.80;;;1.25;;
18210;SDS011;9231;48.852;9.882;2023-07-29T10:47:10;1.42;;;1.10;;
18210;SDS011;9231;48.852;9.882;2023-07-29T10:49:39;2.47;;;1.20;;
18210;SDS011;9231;48.852;9.882;2023-07-29T10:52:06;2.47;;;1.10;;
18210;SDS011;9231;48.852;9.882;2023-07-29T10:54:34;2.20;;;1.33;;
18210;SDS011;9231;48.852;9.882;2023-07-29T10:57:07;2.45;;;1.30;;
18210;SDS011;9231;48.852;9.882;2023-07-29T10:59:34;1.45;;;1.20;;
18210;SDS011;9231;48.852;9.882;2023-07-29T11:02:00;2.33;;;0.80;;
18210;SDS011;9231;48.852;9.882;2023-07-29T11:04:28;0.77;;;0.60;;
18210;SDS011;9231;48.852;9.882;2023-07-29T11:09:42;1.00;;;0.57;;
18210;SDS011;9231;48.852;9.882;2023-07-29T11:14:50;2.00;;;0.47;;
18210;SDS011;9231;48.852;9.882;2023-07-29T11:17:17;1.55;;;0.60;;
18210;SDS011;9231;48.852;9.882;2023-07-29T11:19:43;1.52;;;0.68;;
18210;SDS011;9231;48.852;9.882;2023-07-29T11:22:10;2.20;;;0.50;;
18210;SDS011;9231;48.852;9.882;2023-07-29T11:24:37;0.82;;;0.30;;
18210;SDS011;9231;48.852;9.882;2023-07-29T11:27:05;4.15;;;0.50;;
18210;SDS011;9231;48.852;9.882;2023-07-29T11:29:32;2.20;;;0.55;;
18210;SDS011;9231;48.852;9.882;2023-07-29T11:31:58;1.65;;;0.63;;
18210;SDS011;9231;48.852;9.882;2023-07-29T11:34:30;1.75;;;0.75;;
18210;SDS011;9231;48.852;9.882;2023-07-29T11:36:57;0.75;;;0.68;;
18210;SDS011;9231;48.852;9.882;2023-07-29T11:39:23;1.05;;;0.80;;
18210;SDS011;9231;48.852;9.882;2023-07-29T11:41:50;2.85;;;0.88;;
18210;SDS011;9231;48.852;9.882;2023-07-29T11:44:18;1.02;;;0.63;;
18210;SDS011;9231;48.852;9.882;2023-07-29T11:46:44;1.13;;;0.77;;
18210;SDS011;9231;48.852;9.882;2023-07-29T11:49:10;3.80;;;0.80;;
18210;SDS011;9231;48.852;9.882;2023-07-29T11:51:37;2.13;;;0.63;;
18210;SDS011;9231;48.852;9.882;2023-07-29T11:54:03;0.73;;;0.70;;
18210;SDS011;9231;48.852;9.882;2023-07-29T11:56:31;0.70;;;0.60;;
18210;SDS011;9231;48.852;9.882;2023-07-29T11:58:58;0.90;;;0.70;;
18210;SDS011;9231;48.852;9.882;2023-07-29T12:01:27;0.85;;;0.63;;
18210;SDS011;9231;48.852;9.882;2023-07-29T12:03:53;1.73;;;0.80;;
18210;SDS011;9231;48.852;9.882;2023-07-29T12:06:21;1.25;;;0.70;;
18210;SDS011;9231;48.852;9.882;2023-07-29T12:08:48;6.20;;;0.80;;
18210;SDS011;9231;48.852;9.882;2023-07-29T12:11:15;1.30;;;0.80;;
18210;SDS011;9231;48.852;9.882;2023-07-29T12:13:41;1.48;;;0.80;;
18210;SDS011;9231;48.852;9.882;2023-07-29T12:16:08;0.88;;;0.80;;
18210;SDS011;9231;48.852;9.882;2023-07-29T12:18:36;3.75;;;0.70;;
18210;SDS011;9231;48.852;9.882;2023-07-29T12:21:02;1.23;;;0.65;;
18210;SDS011;9231;48.852;9.882;2023-07-29T12:23:29;1.10;;;0.85;;
18210;SDS011;9231;48.852;9.882;2023-07-29T12:25:56;0.90;;;0.80;;
18210;SDS011;9231;48.852;9.882;2023-07-29T12:28:23;1.27;;;0.80;;
18210;SDS011;9231;48.852;9.882;2023-07-29T12:30:52;1.83;;;0.80;;
18210;SDS011;9231;48.852;9.882;2023-07-29T12:33:29;1.15;;;0.90;;
18210;SDS011;9231;48.852;9.882;2023-07-29T12:35:57;1.17;;;0.70;;
18210;SDS011;9231;48.852;9.882;2023-07-29T12:38:25;0.95;;;0.70;;
18210;SDS011;9231;48.852;9.882;2023-07-29T12:40:52;2.63;;;0.90;;
18210;SDS011;9231;48.852;9.882;2023-07-29T12:43:18;1.00;;;0.80;;
18210;SDS011;9231;48.852;9.882;2023-07-29T12:45:45;2.53;;;0.93;;
18210;SDS011;9231;48.852;9.882;2023-07-29T12:48:11;1.63;;;0.93;;
18210;SDS011;9231;48.852;9.882;2023-07-29T12:50:38;1.30;;;0.90;;
18210;SDS011;9231;48.852;9.882;2023-07-29T12:53:06;3.22;;;1.00;;
18210;SDS011;9231;48.852;9.882;2023-07-29T12:55:32;1.10;;;0.80;;
18210;SDS011;9231;48.852;9.882;2023-07-29T12:57:59;1.10;;;0.90;;
18210;SDS011;9231;48.852;9.882;2023-07-29T13:00:26;1.92;;;1.27;;
18210;SDS011;9231;48.852;9.882;2023-07-29T13:02:52;1.95;;;1.10;;
18210;SDS011;9231;48.852;9.882;2023-07-29T13:05:19;2.33;;;1.20;;
18210;SDS011;9231;48.852;9.882;2023-07-29T13:07:45;0.90;;;0.90;;
18210;SDS011;9231;48.852;9.882;2023-07-29T13:10:13;2.38;;;0.90;;
18210;SDS011;9231;48.852;9.882;2023-07-29T13:12:39;1.40;;;0.80;;
18210;SDS011;9231;48.852;9.882;2023-07-29T13:15:06;2.05;;;1.00;;
18210;SDS011;9231;48.852;9.882;2023-07-29T13:17:33;1.58;;;1.05;;
18210;SDS011;9231;48.852;9.882;2023-07-29T13:19:59;1.17;;;0.70;;
18210;SDS011;9231;48.852;9.882;2023-07-29T13:22:26;1.30;;;0.90;;
18210;SDS011;9231;48.852;9.882;2023-07-29T13:24:52;1.63;;;0.95;;
18210;SDS011;9231;48.852;9.882;2023-07-29T13:27:20;1.40;;;0.90;;
18210;SDS011;9231;48.852;9.882;2023-07-29T13:29:47;1.33;;;0.90;;
18210;SDS011;9231;48.852;9.882;2023-07-29T13:32:14;1.50;;;0.90;;
18210;SDS011;9231;48.852;9.882;2023-07-29T13:34:40;1.10;;;1.00;;
18210;SDS011;9231;48.852;9.882;2023-07-29T13:37:06;1.70;;;0.93;;
18210;SDS011;9231;48.852;9.882;2023-07-29T13:39:33;1.33;;;0.90;;
18210;SDS011;9231;48.852;9.882;2023-07-29T13:41:59;1.05;;;0.70;;
18210;SDS011;9231;48.852;9.882;2023-07-29T13:44:27;1.00;;;0.80;;
18210;SDS011;9231;48.852;9.882;2023-07-29T13:46:53;2.40;;;1.00;;
18210;SDS011;9231;48.852;9.882;2023-07-29T13:49:20;1.10;;;0.98;;
18210;SDS011;9231;48.852;9.882;2023-07-29T13:51:46;1.00;;;0.90;;
18210;SDS011;9231;48.852;9.882;2023-07-29T13:54:13;1.20;;;0.90;;
18210;SDS011;9231;48.852;9.882;2023-07-29T13:56:39;1.30;;;1.00;;
18210;SDS011;9231;48.852;9.882;2023-07-29T13:59:06;1.02;;;0.90;;
18210;SDS011;9231;48.852;9.882;2023-07-29T14:01:33;1.35;;;0.98;;
18210;SDS011;9231;48.852;9.882;2023-07-29T14:04:00;1.98;;;1.00;;
18210;SDS011;9231;48.852;9.882;2023-07-29T14:06:26;1.00;;;0.90;;
18210;SDS011;9231;48.852;9.882;2023-07-29T14:08:53;1.60;;;1.10;;
18210;SDS011;9231;48.852;9.882;2023-07-29T14:11:19;2.25;;;1.35;;
18210;SDS011;9231;48.852;9.882;2023-07-29T14:13:46;1.23;;;1.10;;
18210;SDS011;9231;48.852;9.882;2023-07-29T14:16:12;1.45;;;1.30;;
18210;SDS011;9231;48.852;9.882;2023-07-29T14:18:41;1.38;;;1.27;;
18210;SDS011;9231;48.852;9.882;2023-07-29T14:21:07;2.30;;;1.20;;
18210;SDS011;9231;48.852;9.882;2023-07-29T14:23:34;1.52;;;1.10;;
18210;SDS011;9231;48.852;9.882;2023-07-29T14:26:00;3.40;;;1.33;;
18210;SDS011;9231;48.852;9.882;2023-07-29T14:28:27;1.52;;;1.30;;
18210;SDS011;9231;48.852;9.882;2023-07-29T14:30:53;1.30;;;1.20;;
18210;SDS011;9231;48.852;9.882;2023-07-29T14:33:19;1.80;;;1.20;;
18210;SDS011;9231;48.852;9.882;2023-07-29T14:35:47;2.15;;;1.20;;
18210;SDS011;9231;48.852;9.882;2023-07-29T14:38:14;1.25;;;1.15;;
18210;SDS011;9231;48.852;9.882;2023-07-29T14:40:40;2.85;;;1.10;;
18210;SDS011;9231;48.852;9.882;2023-07-29T14:43:07;1.42;;;1.17;;
18210;SDS011;9231;48.852;9.882;2023-07-29T14:45:33;1.27;;;1.17;;
18210;SDS011;9231;48.852;9.882;2023-07-29T14:47:59;1.45;;;1.00;;
18210;SDS011;9231;48.852;9.882;2023-07-29T14:50:26;2.97;;;1.25;;
18210;SDS011;9231;48.852;9.882;2023-07-29T14:52:54;2.28;;;1.10;;
18210;SDS011;9231;48.852;9.882;2023-07-29T14:55:20;3.30;;;1.50;;
18210;SDS011;9231;48.852;9.882;2023-07-29T14:57:46;1.20;;;1.10;;
18210;SDS011;9231;48.852;9.882;2023-07-29T15:00:13;1.20;;;1.10;;
18210;SDS011;9231;48.852;9.882;2023-07-29T15:02:40;1.30;;;1.08;;
18210;SDS011;9231;48.852;9.882;2023-07-29T15:05:06;1.67;;;1.15;;
18210;SDS011;9231;48.852;9.882;2023-07-29T15:07:33;1.30;;;1.10;;